Pagrindinis puslapis
METAR-TAF:

METAR-TAF

Oro uostai :

Ponsė, Puerto Rikas, Jungtinės Amerikos Valstijos

platuma: 18-01N, ilguma: 066-34W, Aukštis: 8 m

METAR: trūkstamas

Laikas: 21:36 (01:36 UTC)

Prognozė

Ataskaita buvo paskelbta 1 valandą ir 57 minutes, ne 23:39 UTC
Prognozė galioja nuo 29 metu 00 UTC su 29 metu 24 UTC
Vėjas 3 kt iš Šiaurės/Šiaurės Rytų
Matomumas: 10 km
Mažai debesys ne aukštis 2500 ft
Nuo 29 metu 1400 UTC
Vėjas 8 kt iš Pietų/Pietryčių
Matomumas: 10 km
Mažai debesys ne aukštis 3500 ft
Mažai debesys ne aukštis 6000 ft
Nuo 29 metu 2300 UTC
Vėjas 3 kt iš Šiaurės Rytų
Matomumas: 10 km
Mažai debesys ne aukštis 4500 ft

TAF: TJPS 282339Z 2900/2924 02003KT P6SM FEW025 FM291400 16008KT P6SM FEW035 FEW060 FM292300 04003KT P6SM FEW045

Orai ataskaitas ir orų prognozės (METAR, TAF).

turimą stotys yra geltonos ir raudonos taškus žemėlapyje.

Perkelti pele per norėdami pamatyti stoties vardą.

Tada spustelėkite, norėdami matyti oro stebėjimo ir prognozės.

Norėdami pakeisti žemėlapį: spustelėkite ant žalios mygtukų su juodo kryžiaus žemyn,; žalią mygtuką su brūkšneliu, jei norite nutolinti; arba žalių rodyklių gretimoms žemėlapius.


METAR-TAF: